Atlantic City, New Jersey
Current Conditions -  °F | °C
As of 7:42 AM on Saturday 01 Nov 2014 (Local Time) from KACY Reporting Station
Light Rain Light Rain  
Wind Chill: 38°   Ceiling: 1100
Heat Index: 46°   Visibility: 7mi
Dew Point: 45°   Wind: 23mph
Humidity: 96%   Direction: 10°N
Pressure: 29.71"   Gusts: 31mph
Location:  39.36°N, 74.43°W
Report Text: KACY 011142Z AUTO 01020G27KT 7SM -RA SCT008 BKN011 OVC045 08/07 A2971 RMK AO2 PK WND 02027/1139 P0018 T00780072 TSNO $
Loading
Personal Weather Stations






























Interactive Weather Map
Tropical Storm Tracking
New forecast layout! Learn more

10-Day Weather Forecast

Advertisements
Track Severe Weather on mobile